2^ Diecimila del Campanile

Ponte San Giovanni (Pg) - 16 settembre 2012

 

Risultati a cura di DreamRunners Perugia

 

 

 

Ordine d'arrivo generale maschile - km 10
Pos. Atleta Anno Squadra Cat. Tempo Media P.Cat.
1 KEMEI NOAH 1986 ATL. FUTURA FIGLINE A 00:30:26 3,03 0
2 KOECH JOSAPHAT KIMUTI 1982 LIBERTAS CATANIA A 00:30:36 3,04 0
3 MARHNAOUI TARIK 1982 ATL. COLLEFERRO A 00:31:32 3,09 0
4 CHIRCHIR DENIS 1993 G.S. ORECCHIELLA A 00:31:47 3,11 0
5 TROIA DANIELE 1985 RUNNING CLUB FUTURA RM A 00:32:09 3,13 0
6 CHECCARELLI ANTONIO 1982 POD. AVIS DERUTA A 00:32:52 3,17 0
7 RADUAN HAKIM 1974 ATL. CEPRANO B 00:33:13 3,19 0
8 MARTELLOTTI MIRKO 1974 FORTI RUNNERS TERNI B 00:34:36 3,28 0
9 BETTACCHINI ANTONELLO 1971 TIFERNO RUNNERS C 00:34:46 3,29 0
10 VERGNI LORENZO 1976 ATL. ASAL FOLIGNO B 00:34:52 3,29 0
11 BISTONI DIEGO 1972 TIFERNO RUNNERS C 00:35:07 3,31 1
12 ALUNNI MARCO 1988 ATL. CAPANNE PG A 00:35:46 3,35 1
13 SANTUCCI LORENZO 1976 G.S. LE PANCHE CASTELQUARTO B 00:35:48 3,35 1
14 BALDELLI GIUSEPPE 1968 ATL. AVIS PERUGIA C 00:36:02 3,36 2
15 MARINANGELI SAMUELE 1984 SATRINI GROUP ATHLETIC TREVI A 00:36:05 3,37 2
16 BOSCHETTI MATTIA 1989 ATL. LIBERTAS ARCS A 00:36:05 3,37 3
17 TALIANI MASSIMILIANO 1976 TEAM MARATHON BIKE B 00:36:30 3,39 2
18 AMETRANO ALESSIO 1983 POD. CORCIANO A 00:36:31 3,39 4
19 PARDINI RICCARDO 1968 A.P. PONTEFELCINO PG C 00:36:33 3,39 3
20 PORTOGHESE GIUSEPPE 1975 POD. AVIS DERUTA B 00:36:34 3,39 3
21 CAMILLONI LIVIO 1977 DREAM RUNNERS PG B 00:36:43 3,40 4
22 EL KHALIL YASSIN 1992 CDP-T&RB GROUP PG A 00:36:56 3,42 5
23 LIBERTI PAOLO 1980 ATL. AVIS PERUGIA A 00:36:58 3,42 6
24 SFONDALMONDO MASSIMILIANO 1971 ATL. AVIS PERUGIA C 00:37:04 3,42 4
25 CAPANNI FRANCESCO 1974 MARATHON CLUB C. DI CASTELLO B 00:37:07 3,43 5
26 MINCIOTTI MASSIMILIANO 1972 ATL. CAPANNE PG C 00:37:10 3,43 5
27 BELLINI ROBERTO 1971 ESERCITO CE.SEL.NA FOLIGNO C 00:37:12 3,43 6
28 DIONISI MARCO 1992 GUBBIO RUNNERS A 00:37:16 3,44 7
29 PIRILLI ANDREA 1969 DREAM RUNNERS PG C 00:37:16 3,44 7
30 FRANCESCHELLI LUIGI 1970 ATL. AVIS PERUGIA C 00:37:21 3,44 8
31 MATERAZZI MARCO 1968 C.U.S. CAMERINO C 00:37:22 3,44 9
32 GIORGETTI CLAUDIO 1960 AMATORI POD. TERNI E 00:37:23 3,44 1
33 LICATA GABRIELE 1973 GUBBIO RUNNERS B 00:37:28 3,45 6
34 NUCCIARELLI PIERLUIGI 1980 ATL. IL COLLE PERUGIA A 00:37:28 3,45 8
35 RICCI CARLO 1975 CDP-T&RB GROUP PG B 00:37:32 3,45 7
36 PANFILI FLAVIO 1971 ATL. AVIS PERUGIA C 00:37:32 3,45 10
37 SCASSELLATI VALERIO 1979 ATL. TAINO G.TADINO A 00:37:33 3,45 9
38 NALLI GIACOMO 1989 A.C.R.U.S.D. CAMERINO IN CORSA A 00:37:40 3,46 10
39 FOSCA LORENZO 1964 SIDERMEC VITALI D 00:37:42 3,46 1
40 ILARIONI LUCA 1965 G.S. LE PANCHE CASTELQUARTO D 00:37:43 3,46 2
41 COMANDUCCI MASSIMO 1975 AVIS SANSEPOLCRO B 00:37:44 3,46 8
42 GIOVANNINI LORENZO 1975 CDP-T&RB GROUP PG B 00:37:45 3,47 9
43 BRIGANTI CLAUDIO 1966 TIFERNO RUNNERS D 00:37:49 3,47 3
44 FRATINI DANIELE 1979 ATL. TAINO G.TADINO A 00:37:56 3,48 11
45 FALLERI MASSIMILIANO 1967 MARATHON CLUB C. DI CASTELLO D 00:38:01 3,48 4
46 ANGELUCCI GABRIELE 1986 POD. WINNER FOLIGNO A 00:38:22 3,50 12
47 INNOCENTI FRANCESCO 1977 AVIS SANSEPOLCRO B 00:38:25 3,51 10
48 CELLI MARCO 1970 AVIS SANSEPOLCRO C 00:38:29 3,51 11
49 SAVA WALTER 1974 ESERCITO CE.SEL.NA FOLIGNO B 00:38:36 3,52 11
50 BACCHIOCCHI ALESSANDRO 1977 ATL. LIBERTAS ARCS B 00:38:36 3,52 12
51 FEDERICI WALTER 1979 C.U.S. CAMERINO A 00:38:42 3,52 13
52 PINACOLI CARLO ALBERTO 1970 ATL. TAINO G.TADINO C 00:38:45 3,53 12
53 VURRO GIUSEPPE 1959 G.S. LE PANCHE CASTELQUARTO E 00:38:50 3,53 2
54 SFODERA MARCO 1974 POD. CORCIANO B 00:38:53 3,53 13
55 MATTIOLI CLAUDIO 1959 ATL. AVIS PERUGIA E 00:38:53 3,53 3
56 ZUCCHINI ANDREA 1971 MARATHON CLUB C. DI CASTELLO C 00:38:56 3,54 13
57 MARTINETTI FABRIZIO 1955 CDP-T&RB GROUP PG F 00:38:58 3,54 1
58 CUITI STEFANO 1973 CDP-T&RB GROUP PG B 00:39:04 3,54 14
59 MARIOLI STEFANO 1963 CDP-T&RB GROUP PG D 00:39:10 3,55 5
60 TARABELLA STEFANO 1977 MARATHON CLUB C. DI CASTELLO B 00:39:11 3,55 15
61 BIAGIONI MASSIMO 1974 ATL. TAINO G.TADINO B 00:39:14 3,55 16
62 THEODOROS KOLYVANIS 1986 A.C.R.U.S.D. CAMERINO IN CORSA A 00:39:17 3,56 14
63 BERTOLINI ADEMARO 1956 CDP-T&RB GROUP PG F 00:39:19 3,56 2
64 CAPORALETTI SIMONE 1976 UISPORT AVIS TODI B 00:39:22 3,56 17
65 CORSINI FRANCESCO 1989 OLYMPIC RUNNERS LAMA A 00:39:23 3,56 15
66 TINI FABRIZIO 1967 ATL. CAPANNE PG D 00:39:23 3,56 6
67 CASALINI SERGIO 1984 POD. WINNER FOLIGNO A 00:39:25 3,57 16
68 POLTICCHIA ROBERTO 1964 CDP-T&RB GROUP PG D 00:39:29 3,57 7
69 FORTUNATI MASSIMO 1964 UISPORT AVIS TODI D 00:39:35 3,58 8
70 RALLO FRANCESCO 1960 ATL. AVIS PERUGIA E 00:39:36 3,58 4
71 GREGORI NICOLA 1972 AVIS SANSEPOLCRO C 00:39:39 3,58 14
72 BRACHELENTE LORENZO 1985 OLYMPIC RUNNERS LAMA A 00:39:40 3,58 17
73 COVARELLI MAURO 1959 ATL. AVIS PERUGIA E 00:39:46 3,59 5
74 SISTONI ROBERTO 1967 ATL. AVIS PERUGIA D 00:39:50 3,59 9
75 BERRETTONI CLAUDIO 1970 POD. AVIS FABRIANO AN C 00:39:53 3,59 15
76 PACCHIA ALESSANDRO 1969 POD. WINNER FOLIGNO C 00:39:55 4,00 16
77 TOMASSOLI MASSIMILIANO 1968 CDP-T&RB GROUP PG C 00:39:56 4,00 17
78 PROIETTI MARCO 1979 FORTI RUNNERS TERNI A 00:40:02 4,00 18
79 BIANCONI ENRICO 1977 MARATHON CLUB C. DI CASTELLO B 00:40:04 4,00 18
80 VASTANO GIUSEPPE 1988 C.U.S. CAMERINO A 00:40:06 4,01 19
81 SOLDANI MICHELE 1969 TIFERNO RUNNERS C 00:40:06 4,01 18
82 BAZZUCCHI MAURO 1965 A.S.P.A. BASTIA U. PG D 00:40:16 4,02 10
83 MARINANGELI ADRIANO 1957 SATRINI GROUP ATHLETIC TREVI F 00:40:19 4,02 3
84 CANONICO ASTORRE 1979 ATL. AVIS PERUGIA A 00:40:20 4,02 20
85 MARIANI MASSIMO 1962 POD. LINO SPAGNOLI PG E 00:40:20 4,02 6
86 CHIMENTI FRANCESCO 1971 AVIS SANSEPOLCRO C 00:40:20 4,02 19
87 MOSCATI PAOLO 1963 POD. LINO SPAGNOLI PG D 00:40:20 4,02 11
88 BRIZZI MARCELLO 1972 AVIS SANSEPOLCRO C 00:40:23 4,02 20
89 GIANNI DIDASKALOU 1987 C.U.S. CAMERINO A 00:40:28 4,03 21
90 FAZI MAURO 1971 ATL. TAINO G.TADINO C 00:40:33 4,03 21
91 ZOCCOLINI MICHELE 1974 ATL. CAPANNE PG B 00:40:38 4,04 19
92 GIORDANI MIRKO 1975 ESERCITO CE.SEL.NA FOLIGNO B 00:40:39 4,04 20
93 ROSSINI GIANFRANCO 1962 A.S.P.A. BASTIA U. PG E 00:40:41 4,04 7
94 GAILLARDI ALESSIO 1973 A.S.P.A. BASTIA U. PG B 00:40:43 4,04 21
95 BARTOLLINI SANDRO 1957 RUNNERS SANGEMINI TR F 00:40:46 4,05 4
96 MENENTI MAURO 1973 A.N.I.A.D. B 00:40:49 4,05 22
97 MOGINI FABIO 1968 ATL. AVIS PERUGIA C 00:40:52 4,05 22
98 ARCELLI FABRIZIO 1964 ATL. AVIS PERUGIA D 00:40:55 4,06 12
99 CANAFOGLIA VALERIO 1978 POD. WINNER FOLIGNO A 00:40:57 4,06 22
100 MANGIALASCHE ALFONSO 1951 CDP-T&RB GROUP PG G 00:40:58 4,06 1
101 MAGGI MASSIMO 1972 ATL. AVIS PERUGIA C 00:41:03 4,06 23
102 CONTI STEFANO 1960 ATL. CAPANNE PG E 00:41:04 4,06 8
103 CELLAMARE ANTONIO 1973 ESERCITO CE.SEL.NA FOLIGNO B 00:41:12 4,07 23
104 PROIETTI BOCCHINI PIERLUCA 1972 ATLETA LIBERO C 00:41:20 4,08 24
105 TROMBETTONI LUCA 1965 UISPORT AVIS TODI D 00:41:22 4,08 13
106 LATERZA LUIGI 1964 CDP-T&RB GROUP PG D 00:41:24 4,08 14
107 BINACCI MASSIMO 1965 ATL. AVIS PERUGIA D 00:41:24 4,08 15
108 NATALICCHI CESARE 1956 DREAM RUNNERS PG F 00:41:25 4,09 5
109 BORDI FABIO 1967 RUNNERS SANGEMINI TR D 00:41:27 4,09 16
110 DI MATTEO MARIO 1955 ATL. CAPANNE PG F 00:41:29 4,09 6
111 FINAURO CARLO 1966 SATRINI GROUP ATHLETIC TREVI D 00:41:30 4,09 17
112 MALUCELLI MARCO 1963 POD. WINNER FOLIGNO D 00:41:36 4,10 18
113 BENEDETTI STEFANO 1969 ATL. IL COLLE PERUGIA C 00:41:39 4,10 25
114 CALUSSI MASSIMILIANO 1976 ATL. SINALUNGA B 00:41:42 4,10 24
115 ORSINI FEDERICI CRISTIANO 1973 U.P. POLICIANO AREZZO B 00:42:05 4,13 25
116 PIGINI ALVARO 1959 UISPORT AVIS TODI E 00:42:06 4,13 9
117 SCARPELLONI MAURO 1960 A.S.P.A. BASTIA U. PG E 00:42:09 4,13 10
118 CAMBIOTTI MAURO 1951 ATL. AVIS PERUGIA G 00:42:11 4,13 2
119 LAURIOLA LIBERO 1961 ATL. AVIS PERUGIA E 00:42:19 4,14 11
120 BRUNETTI MARCO 1968 CDP-T&RB GROUP PG C 00:42:19 4,14 26
121 PACETTI SILVIO 1969 LIBERTAS ORVIETO C 00:42:21 4,14 27
122 CASSETTA FABIO 1972 ASSISI RUNNERS C 00:42:22 4,14 28
123 SALEPPICO MORENO 1969 UISPORT AVIS TODI C 00:42:25 4,15 29
124 CAVIGLIONI PATRIZIO 1980 POD. AVIS DERUTA A 00:42:29 4,15 23
125 GOBBINI SIMONE 1972 ATL. AVIS PERUGIA C 00:42:32 4,15 30
126 NOBILINI LUCA 1977 ATL. IL COLLE PERUGIA B 00:42:33 4,15 26
127 ANGELONI GIUSEPPE 1969 GUBBIO RUNNERS C 00:42:35 4,16 31
128 FASTELLINI PAOLO 1978 DREAM RUNNERS PG A 00:42:37 4,16 24
129 BOGLIARI ROBERTO 1974 MARATHON CLUB C. DI CASTELLO B 00:42:38 4,16 27
130 BIANCHI MASSIMO 1966 ASSISI RUNNERS D 00:42:41 4,16 19
131 AGOSTA ROSARIO 1972 A.S.P.A. BASTIA U. PG C 00:42:41 4,16 32
132 BRIZZI MASSIMO 1971 AVIS SANSEPOLCRO C 00:42:45 4,17 33
133 GALUPPA MATTEO 1985 GUBBIO RUNNERS A 00:42:47 4,17 25
134 COPPINI VALTER 1965 ATL. LIBERTAS ARCS D 00:42:47 4,17 20
135 MATTEUCCI TOMMASO 1979 POD. LINO SPAGNOLI PG A 00:42:48 4,17 26
136 PANTI MAURO 1968 CDP-T&RB GROUP PG C 00:42:51 4,17 34
137 STINCHETTI MASSIMO 1966 A.P. PONTEFELCINO PG D 00:42:52 4,17 21
138 GIANNONI CLAUDIO 1961 CDP-T&RB GROUP PG E 00:42:52 4,17 12
139 ROSI PAOLO 1975 ATL. AVIS PERUGIA B 00:42:54 4,17 28
140 GALIOTTO DANIELE 1981 ATL. TAINO G.TADINO A 00:42:56 4,18 27
141 SALVATORI GABRIELE 1967 POD. AVIS FABRIANO AN D 00:42:59 4,18 22
142 TORTORELLA CARLO 1955 CDP-T&RB GROUP PG F 00:43:00 4,18 7
143 ABDALLA SALAH 1962 POD. AVIS DERUTA E 00:43:01 4,18 13
144 PALAZZETTI GIANLUCA 1966 ATL. CAPANNE PG D 00:43:01 4,18 23
145 MANZETTI BRUNO 1941 SATRINI GROUP ATHLETIC TREVI I 00:43:04 4,18 1
146 SABA MAURO 1967 CDP-T&RB GROUP PG D 00:43:06 4,19 24
147 PAZZAGLIA SERGIO 1963 POD. WINNER FOLIGNO D 00:43:08 4,19 25
148 DEL SIENA MAURICE 1961 AVIS SANSEPOLCRO E 00:43:10 4,19 14
149 SANTORI MARIO 1957 POD. AVIS FABRIANO AN F 00:43:11 4,19 8
150 PAOLONI PIERO 1964 ATL. CAPANNE PG D 00:43:13 4,19 26
151 BUCCHI AMEDEO 1958 POD. AVIS FABRIANO AN E 00:43:14 4,19 15
152 DENTINI MARCO 1967 UISPORT AVIS TODI D 00:43:17 4,20 27
153 PEDINI DAMIANO 1968 ATL. IL COLLE PERUGIA C 00:43:18 4,20 35
154 FIORI LEONARDO 1962 ATL. CAPANNE PG E 00:43:19 4,20 16
155 ROSA FRANCESCO 1979 ATINA TRIAL RUNNING A 00:43:21 4,20 28
156 SGUILLA ENZO 1951 ATL. AVIS PERUGIA G 00:43:23 4,20 3
157 BOTTACCIOLI CARLO 1968 ATL. AVIS PERUGIA C 00:43:24 4,20 36
158 PERUGINI MICHELE 1970 OLYMPIC RUNNERS LAMA C 00:43:24 4,20 37
159 SCARABATTOLI MATTEO 1963 POD. LINO SPAGNOLI PG D 00:43:24 4,20 28
160 CANCELLONI MARCELLO 1972 ATL. AVIS PERUGIA C 00:43:25 4,21 38
161 BATORI GIAMPAOLO 1971 POD. WINNER FOLIGNO C 00:43:25 4,21 39
162 MARTINI ROBERTO 1967 POD. AVIS DERUTA D 00:43:27 4,21 29
163 FALCHI ENRICO 1973 POD. WINNER FOLIGNO B 00:43:30 4,21 29
164 BOSCHETTI FRANCESCO 1969 POD. LINO SPAGNOLI PG C 00:43:31 4,21 40
165 MARSILI EROS 1982 ATL. CAPANNE PG A 00:43:34 4,21 29
166 VERDUCCI LEONARDO 1975 ASSISI RUNNERS B 00:43:36 4,22 30
167 PAGIOTTI SIMONE 1978 POD. CORCIANO A 00:43:39 4,22 30
168 PALLERI LUCIANO 1952 OLYMPIC RUNNERS LAMA G 00:43:44 4,22 4
169 TORTOLINI ENRICO 1963 ESERCITO CE.SEL.NA FOLIGNO D 00:43:49 4,23 30
170 MARCANTONINI ROBERTO 1964 ATL. CAPANNE PG D 00:43:50 4,23 31
171 PASQUALONI MASSIMILIANO 1973 ATLETA LIBERO B 00:43:53 4,23 31
172 CANAPARI FRANCESCO 1958 ATL. AVIS PERUGIA E 00:43:55 4,24 17
173 RADICCHI FRANCESCO 1972 CDP-T&RB GROUP PG C 00:43:58 4,24 41
174 TOGNOLONI ITALO 1945 ATL. AVIS PERUGIA H 00:44:02 4,24 1
175 PORFIRI MAURO 1968 A.S.P.A. BASTIA U. PG C 00:44:03 4,24 42
176 PAZZAGLIA ROBERTO 1957 MARATHON CLUB C. DI CASTELLO F 00:44:05 4,25 9
177 LEONARDI LORENZO 1959 G.P. LUCREZIA PU E 00:44:08 4,25 18
178 ALLEGRUCCI CRISTIAN 1994 GUBBIO RUNNERS A 00:44:10 4,25 31
179 BERGINI MAURIZIO 1973 ESERCITO CE.SEL.NA FOLIGNO B 00:44:13 4,25 32
180 MASSETTI SANDRO 1960 MARATHON CLUB C. DI CASTELLO E 00:44:18 4,26 19
181 LACCHI MASSIMILIANO 1976 ATL. TAINO G.TADINO B 00:44:20 4,26 33
182 GALLI SERGIO 1972 CDP-T&RB GROUP PG C 00:44:20 4,26 43
183 GIACCHETTA MARCO 1972 ATL. AVIS PERUGIA C 00:44:23 4,26 44
184 TERRANOVA FAUSTO 1979 ATL. AVIS PERUGIA A 00:44:24 4,26 32
185 PANICALE STEFANO 1971 ATL. AVIS PERUGIA C 00:44:25 4,27 45
186 RIBIGINI LEONARDO 1976 CDP-T&RB GROUP PG B 00:44:26 4,27 34
187 TRAPPOLONI RICCARDO 1974 AVIS SANSEPOLCRO B 00:44:28 4,27 35
188 MENCARINI PAOLO 1964 POD. AVIS DERUTA D 00:44:28 4,27 32
189 CHECCAGLINI LUCIANO 1948 AVIS SANSEPOLCRO G 00:44:30 4,27 5
190 MACCHIONI CLAUDIO 1977 ATL. AVIS PERUGIA B 00:44:30 4,27 36
191 COLETTI PAOLO 1962 ATL. AVIS PERUGIA E 00:44:33 4,27 20
192 GUERCINI BRUNO 1949 ATL. IL COLLE PERUGIA G 00:44:36 4,28 6
193 POPONESI FILIPPO 1967 ATL. AVIS PERUGIA D 00:44:38 4,28 33
194 CIACCIO PIERLUIGI 1964 CDP-T&RB GROUP PG D 00:44:38 4,28 34
195 PRIORI GIULIANO 1965 SIMMEL COLLEFERRO D 00:44:42 4,28 35
196 CHIAVINI ADRIANO 1956 A.S.P.A. BASTIA U. PG F 00:44:43 4,28 10
197 BRODI VERARDO 1947 MARATHON CLUB C. DI CASTELLO H 00:44:44 4,28 2
198 PERITO STEFANO 1952 ATL. AVIS PERUGIA G 00:44:46 4,29 7
199 MIGLIAROTTI SERGIO 1958 MARATHON CLUB C. DI CASTELLO E 00:44:46 4,29 21
200 ALBERTI DANIEL 1979 UP POLICIANO A 00:44:50 4,29 33
201 GIORGI GIACOMO 1983 MARATHON CLUB C. DI CASTELLO A 00:44:58 4,30 34
202 MONOTTI LUCA 1971 ATL. AVIS PERUGIA C 00:45:00 4,30 46
203 MARIANGELONI ALFIO 1969 ATL. AVIS PERUGIA C 00:45:01 4,30 47
204 PASQUETTI PASQUALE 1952 ATL. GARDENIA PG G 00:45:02 4,30 8
205 SOLFANELLI MIRCO 1964 G.S. FILIPPIDE C. D. LAGO D 00:45:03 4,30 36
206 MORETTI SAMUELE 1971 ATL. IL COLLE PERUGIA C 00:45:05 4,31 48
207 ANDREINI MICHELE 1971 POD. AVIS SANSEPOLCRO C 00:45:06 4,31 49
208 NICCHI GIORGIO 1976 AVIS SANSEPOLCRO B 00:45:06 4,31 37
209 ROSIGNOLI FRANCESCO 1957 A.S.P.A. BASTIA U. PG F 00:45:11 4,31 11
210 TOMBA EMANUELE 1967 UISPORT AVIS TODI D 00:45:14 4,31 37
211 GRELLI ALESSANDRO 1985 GUBBIO RUNNERS A 00:45:19 4,32 35
212 MASTRINI MAURIZIO 1963 POD. WINNER FOLIGNO D 00:45:21 4,32 38
213 PELLICCIA SERGIO 1966 CDP-T&RB GROUP PG D 00:45:28 4,33 39
214 SALVATORI DARIO 1963 ATL. IL COLLE PERUGIA D 00:45:29 4,33 40
215 PIAMPIANO MORENO 1969 CDP-T&RB GROUP PG C 00:45:32 4,33 50
216 PANZIERI ALESSANDRO 1971 POD. WINNER FOLIGNO C 00:45:32 4,33 51
217 MENDICINO SALVATORE 1959 ATLETA LIBERO E 00:45:33 4,33 22
218 SIMONCINI MIRCO 1974 APERDIFIATO B 00:45:36 4,34 38
219 SILICATO ANDREA 1966 RUNNERS SANGEMINI TR D 00:45:37 4,34 41
220 CAVALAGLIO VIVIANO 1962 ATL. AVIS PERUGIA E 00:45:40 4,34 23
221 CIABATTA FABIO 1960 ATL. AVIS PERUGIA E 00:45:40 4,34 24
222 GIORGI FRANCESCO 1969 ATL. AVIS PERUGIA C 00:45:41 4,34 52
223 BELLI NICOLA 1974 MARATHON CLUB C. DI CASTELLO B 00:45:42 4,34 39
224 RANALLI GIOVANNI 1971 GUBBIO RUNNERS C 00:45:43 4,34 53
225 FALASCHI DANIELE 1971 CDP-T&RB GROUP PG C 00:45:45 4,35 54
226 BELLINI ALESSIO 1975 ATL. IL COLLE PERUGIA B 00:45:47 4,35 40
227 TITTI ALFREDO 1963 POD. AVIS FABRIANO AN D 00:45:49 4,35 42
228 PIORICO ANDREA 1963 ATL. LIBERTAS ARCS D 00:45:53 4,35 43
229 GUSTINICCHI MAURIZIO 1966 MARATHON CLUB C. DI CASTELLO D 00:45:54 4,35 44
230 POMPEI GIANCARLO 1964 ATL. TAINO G.TADINO D 00:45:55 4,36 45
231 GIGLIONI LUCA 1974 MENS SANA SIENA B 00:45:57 4,36 41
232 PICOTTI AUGUSTO 1966 C.U.S. CAMERINO D 00:45:58 4,36 46
233 BISCARINI ENRICO 1959 ATL. IL COLLE PERUGIA E 00:46:06 4,37 25
234 ESPOSITO PAOLO 1972 AMATORI VESUVIO NA C 00:46:11 4,37 55
235 VINCENTI DANIELE 1974 POD. WINNER FOLIGNO B 00:46:14 4,37 42
236 TESTA FABIO 1974 CDP-T&RB GROUP PG B 00:46:21 4,38 43
237 MENCONI ANTONELLO 1967 CDP-T&RB GROUP PG D 00:46:23 4,38 47
238 GIORGI GIULIANO 1951 MARATHON CLUB C. DI CASTELLO G 00:46:25 4,39 9
239 ROSI GIANLUCA 1971 POD. WINNER FOLIGNO C 00:46:30 4,39 56
240 BIANCHI WALTER 1946 POL. COMUNALE RICCIONE H 00:46:31 4,39 3
241 DE FEO PIERPAOLO 1955 VOLUMNIA SERICAP PG F 00:46:32 4,39 12
242 NERI RICCARDO 1983 ASSISI RUNNERS A 00:46:33 4,39 36
243 SCHIRONE LUIGI 1959 PODISTI MARATONA DI ROMA E 00:46:34 4,39 26
244 BETTINI ROBERTO 1978 UISPORT AVIS TODI A 00:46:34 4,39 37
245 PETRILIGGIERI PIETRO 1958 A.P. PONTEFELCINO PG E 00:46:35 4,40 27
246 LOMBARDI EMANUELE 1971 POD. WINNER FOLIGNO C 00:46:35 4,40 57
247 SOLLEVANTI MARCO 1973 GUBBIO RUNNERS B 00:46:41 4,40 44
248 FERRETTI GIANNI 1967 POD. WINNER FOLIGNO D 00:46:43 4,40 48
249 TIZZI ALBERTO 1975 POD. AVIS DERUTA B 00:46:43 4,40 45
250 RICCI VANNI 1964 UISPORT AVIS TODI D 00:46:52 4,41 49
251 VERZINI STEFANO 1978 A.P. PONTEFELCINO PG A 00:47:14 4,43 38
252 TOCCACELI BRUNO 1957 G.P. LUCREZIA PU F 00:47:16 4,44 13
253 BEDINI LUCA 1975 GUBBIO RUNNERS B 00:47:18 4,44 46
254 UMIDINI FRANCESCO 1977 ATL. IL COLLE PERUGIA B 00:47:19 4,44 47
255 PELLEGRINO DANIELE 1962 ATL. AVIS PERUGIA E 00:47:20 4,44 28
256 DI BACCO CORRADO 1968 CDP-T&RB GROUP PG C 00:47:29 4,45 58
257 PECORARI ANTONIO 1939 OLYMPIC RUNNERS LAMA I 00:47:35 4,46 2
258 MANENTI SERGIO 1960 AVIS SANSEPOLCRO E 00:47:39 4,46 29
259 GELSO GIULIANO 1978 ESERCITO CE.SEL.NA FOLIGNO A 00:47:41 4,46 39
260 BROZZI FABIO 1960 ACAR UNICREDIT BANCA PG E 00:47:42 4,46 30
261 CARDAIOLI DANILO 1963 ATL. IL COLLE PERUGIA D 00:47:43 4,46 50
262 DE MAIO GIUSEPPE 1979 ESERCITO CE.SEL.NA FOLIGNO A 00:47:43 4,46 40
263 BOSCO SABINO 1966 ASSISI RUNNERS D 00:47:46 4,47 51
264 BELARDINELLI STEFANO 1963 C.U.S. CAMERINO D 00:47:49 4,47 52
265 MARZIOLI ENRICO 1958 POD. WINNER FOLIGNO E 00:47:50 4,47 31
266 MARCHETTI LUCA 1971 ASSISI RUNNERS C 00:47:52 4,47 59
267 MANDOLINI STEFANO 1959 G.P. AVIS CASTELRAIMONDO E 00:47:57 4,48 32
268 ROSSI GIANLUCA 1968 A.S.P.A. BASTIA U. PG C 00:48:11 4,49 60
269 FABI ANDREA 1973 CDP-T&RB GROUP PG B 00:48:13 4,49 48
270 PICOTTINI GIANFRANCO 1954 ATL. LIBERTAS ARCS F 00:48:18 4,50 14
271 TRINARI WALTER 1969 ATL. IL COLLE PERUGIA C 00:48:21 4,50 61
272 BELLACHIOMA ENZO 1955 ATL. LIBERTAS ARCS F 00:48:25 4,51 15
273 CHIOCCI MARCELLO 1949 CDP-T&RB GROUP PG G 00:48:26 4,51 10
274 CARBONINI RUGGERO 1947 ATL. CAPANNE PG H 00:48:30 4,51 4
275 LASAGNA FRANCESCO 1972 POD. CORCIANO C 00:48:33 4,51 62
276 BALDASSARRI MICHELE 1974 POD. AVIS DERUTA B 00:48:40 4,52 49
277 SABATINI ENRICO 1979 FORTI RUNNERS TERNI A 00:48:42 4,52 41
278 AMMIRATI CLAUDIO 1971 UISPORT AVIS TODI C 00:48:46 4,53 63
279 ROSSI PAOLO 1965 A.S.P.A. BASTIA U. PG D 00:48:50 4,53 53
280 PELLICCIA MARCO 1959 ATL. AVIS PERUGIA E 00:48:51 4,53 33
281 DE ROSA RAFFAELE AGOSTINO 1972 ATL. CAPANNE PG C 00:48:51 4,53 64
282 BULLETTA ALESSANDRO 1964 CDP-T&RB GROUP PG D 00:48:51 4,53 54
283 CAPANNELLI ANTONELLO 1973 A.S.P.A. BASTIA U. PG B 00:48:52 4,53 50
284 LONGETTI GIANNI 1948 A.P. PONTEFELCINO PG G 00:48:54 4,53 11
285 MANGIABENE STEFANO 1984 POD. AVIS DERUTA A 00:48:58 4,54 42
286 MIRMINA OTELLO 1953 POD. AVIS DERUTA F 00:49:02 4,54 16
287 BELARDINELLI ANDREA 1969 POD. WINNER FOLIGNO C 00:49:03 4,54 65
288 LUCARELLI FRANCESCO 1979 FORTI RUNNERS TERNI A 00:49:09 4,55 43
289 MARTIRIGGIANO GIUSEPPE 1968 CDP-T&RB GROUP PG C 00:49:12 4,55 66
290 CANDI SILVANO 1971 ASSISI RUNNERS C 00:49:15 4,56 67
291 PACINI MAURO 1961 AVIS SANSEPOLCRO E 00:49:19 4,56 34
292 GALLEA SALVATORE 1967 CDP-T&RB GROUP PG D 00:49:19 4,56 55
293 RANCHELLA FABIO 1967 CDP-T&RB GROUP PG D 00:49:22 4,56 56
294 BISCARINI LUCIANO 1948 ATL. AVIS PERUGIA G 00:49:24 4,56 12
295 CASTRABERTE FAUSTO 1955 DREAM RUNNERS PG F 00:49:34 4,57 17
296 GASBARRO MASSIMO 1971 CDP-T&RB GROUP PG C 00:49:41 4,58 68
297 BISCIAIO ATTILIO 1955 ATL. TAINO G.TADINO F 00:49:43 4,58 18
298 PAPA ROBERTO 1979 A.S.P.A. BASTIA U. PG A 00:49:50 4,59 44
299 PAPA FRANCESCO 1978 A.S.P.A. BASTIA U. PG A 00:49:50 4,59 45
300 COSTARELLI LEONARDO 1977 POD. CORCIANO B 00:49:57 5,00 51
301 PISANI EMILIO 1971 ATL. CAPANNE PG C 00:49:58 5,00 69
302 MORELLI MORENO 1971 GUBBIO RUNNERS C 00:50:04 5,00 70
303 TORRICELLI RENZO 1953 ATL. AVIS PERUGIA F 00:50:07 5,01 19
304 GIOVANNONI FRANCO 1944 MARATHON CLUB C. DI CASTELLO H 00:50:09 5,01 5
305 CIOTTI RICCARDO 1970 AVIS SANSEPOLCRO C 00:50:11 5,01 71
306 MASSETTI SERGIO 1957 CDP-T&RB GROUP PG F 00:50:18 5,02 20
307 MONTAGNA MAURO 1981 CDP-T&RB GROUP PG A 00:50:20 5,02 46
308 GONNELLINI ANDREA 1973 CDP-T&RB GROUP PG B 00:50:24 5,02 52
309 STACCIOLI GIOVANNI 1955 A.P. PONTEFELCINO PG F 00:50:27 5,03 21
310 GUERRA ANDREA 1974 AVIS SANSEPOLCRO B 00:50:31 5,03 53
311 GIUSTINI ROBERTO 1956 UP POLICIANO F 00:50:31 5,03 22
312 BOGINI GIORGIO 1956 CDP-T&RB GROUP PG F 00:50:36 5,04 23
313 CAPPELLETTI STEFANO 1949 UISPORT AVIS TODI G 00:50:48 5,05 13
314 SIENA ANDREA 1975 A.S.P.A. BASTIA U. PG B 00:50:51 5,05 54
315 TIEZZI ALESSANDRO 1985 ATL. SINALUNGA A 00:51:01 5,06 47
316 FIORDI FABIO 1963 CDP-T&RB GROUP PG D 00:51:06 5,07 57
317 CLAUDI MAURO 1976 C.U.S. CAMERINO B 00:51:14 5,07 55
318 LIPPERA PAOLO 1958 POD. AVIS FABRIANO AN E 00:51:17 5,08 35
319 ORTICA ADRIANO 1946 ATL. IL COLLE PERUGIA H 00:51:29 5,09 6
320 LESSANDRELLI MARIO 1947 ATL. AVIS PERUGIA H 00:51:30 5,09 7
321 CLERI ANGELO 1952 A.S.P.A. BASTIA U. PG G 00:51:50 5,11 14
322 ERCOLANI MARIO 1955 MARATHON CLUB C. DI CASTELLO F 00:51:53 5,11 24
323 BARRECA PAOLO GIUSEPPE 1959 POD. CORCIANO E 00:51:54 5,11 36
324 ORCIDI FABRIZIO 1955 CDP-T&RB GROUP PG F 00:51:56 5,12 25
325 MORONI BRUNO 1942 ATL. CAPANNE PG I 00:51:57 5,12 3
326 MINCIARELLI CLAUDIO 1955 ATL. CAPANNE PG F 00:52:01 5,12 26
327 MASI MIRCO 1984 ATL. SINALUNGA A 00:52:10 5,13 48
328 ANGELINI MARZIO 1954 UISPORT AVIS TODI F 00:52:21 5,14 27
329 SUSTA SIMONE 1974 A.S. ATHLON ASI BASTIA PG B 00:52:22 5,14 56
330 CAFORIO GIUSEPPE 1965 POD. CORCIANO D 00:52:30 5,15 58
331 FARNETANI LIVIO 1955 ATL. SINALUNGA F 00:52:33 5,15 28
332 ALBERTI LORENZO 1965 AVIS SANSEPOLCRO D 00:52:37 5,16 59
333 MENCARINI PAOLO 1963 ATL. LIBERTAS ARCS D 00:52:45 5,17 60
334 ANDRICCIOLA GIOVANNI 1958 A.S.P.A. BASTIA U. PG E 00:52:49 5,17 37
335 BITOCCHI MAURIZIO 1957 ATL. LIBERTAS ARCS F 00:52:52 5,17 29
336 LUCIANI ALESSANDRO 1979 ATLETA LIBERO A 00:52:57 5,18 49
337 PICCINI FRANCO 1958 ATL. CAPANNE PG E 00:52:59 5,18 38
338 TIEZZI MASSIMO 1956 ATL. SINALUNGA F 00:53:05 5,19 30
339 BORDICHINI MASSIMO 1958 ATL. TAINO G.TADINO E 00:53:18 5,20 39
340 SERLUPINI ANTONIO 1939 A.S.P.A. BASTIA U. PG I 00:53:31 5,21 4
341 FADILE HAMID 1977 UISPORT AVIS TODI B 00:53:41 5,22 57
342 VIOLATI ROBERTO 1956 FORTI RUNNERS TERNI F 00:53:46 5,23 31
343 FRANCESCHINI FABRIZIO 1966 FORTI RUNNERS TERNI D 00:53:54 5,23 61
344 USSIA FRANCESCO 1962 ATLETA LIBERO E 00:53:59 5,24 40
345 BOCCIOLI STEFANO 1973 ATLETA LIBERO B 00:54:01 5,24 58
346 TOMASSONI LUCA 1970 DREAM RUNNERS PG C 00:54:05 5,25 72
347 PAPA SIMONE 1985 A.S.P.A. BASTIA U. PG A 00:54:09 5,25 50
348 CHIOCCI ALESSIO 1981 CDP-T&RB GROUP PG A 00:54:11 5,25 51
349 BRUNORI RINO 1943 ATL. AVIS PERUGIA H 00:54:11 5,25 8
350 PETRAZZINI GIUSEPPE 1955 ATL. AVIS PERUGIA F 00:54:14 5,25